aviador You're here:

KLOR Decoded Metar

LOWE AHP/FT. RUC in AL, USA
Report Time2018-01-19 10:58:00
UTC Time2018-01-19 11:00:58
Flight Rules vfr VFR
WindCalm
Visibility9999 m
Phenomena:N/A
Clouds:N/A
CeilingNone
Temp-7°C (ISA -22)
Dew Point-7°C (100% RH)
AAT-9.8°C
QNH1028 hPa
Density Alt-2,890 ft
Elevation243 ft
Report Wrong Elevation
Raw Report
METAR KLOR 191058Z AUTO 00000KT 10SM CLR M07/M07 A3035 RMK AO2 SLP263
T10681074 FZRANO=

Extra information for KLOR:More info

Metar Taf Metar & Taf Last 4 Metars F.Rules Stats Wind Profile Meteogram Temp Stats Airport Information Weather charts Add Link Nearby VenuesMetar ALERT Operation Metar Decoded Social comments

AIRNAV info for KLOR